sensor_id;sensor_type;location;lat;lon;timestamp;noise_LAeq;noise_LA_min;noise_LA_max;noise_LA01;noise_LA95
69615;Laerm;56821;52.486;4.680;2022-09-17T00:00:04;41.05;38.13;43.31;;
69615;Laerm;56821;52.486;4.680;2022-09-17T00:00:15;41.77;39.08;44.38;;
69615;Laerm;56821;52.486;4.680;2022-09-17T00:00:26;40.66;38.55;43.67;;
69615;Laerm;56821;52.486;4.680;2022-09-17T00:00:37;39.08;36.83;41.79;;
69615;Laerm;56821;52.486;4.680;2022-09-17T00:00:48;37.88;36.24;39.92;;
69615;Laerm;56821;52.486;4.680;2022-09-17T00:00:59;38.44;36.71;44.01;;
69615;Laerm;56821;52.486;4.680;2022-09-17T00:01:09;38.73;37.04;41.11;;
69615;Laerm;56821;52.486;4.680;2022-09-17T00:01:23;39.40;37.37;44.83;;
69615;Laerm;56821;52.486;4.680;2022-09-17T00:01:35;39.26;37.67;43.47;;
69615;Laerm;56821;52.486;4.680;2022-09-17T00:01:46;40.16;38.41;45.68;;
69615;Laerm;56821;52.486;4.680;2022-09-17T00:01:56;40.38;38.10;42.87;;
69615;Laerm;56821;52.486;4.680;2022-09-17T00:02:06;40.76;39.14;43.44;;
69615;Laerm;56821;52.486;4.680;2022-09-17T00:02:16;41.32;39.66;43.76;;
69615;Laerm;56821;52.486;4.680;2022-09-17T00:02:26;47.27;40.38;62.28;;
69615;Laerm;56821;52.486;4.680;2022-09-17T00:02:39;41.00;39.03;43.05;;
69615;Laerm;56821;52.486;4.680;2022-09-17T00:02:52;40.95;38.60;43.12;;
69615;Laerm;56821;52.486;4.680;2022-09-17T00:03:06;41.35;38.58;44.28;;
69615;Laerm;56821;52.486;4.680;2022-09-17T00:03:17;40.53;37.89;49.65;;
69615;Laerm;56821;52.486;4.680;2022-09-17T00:03:27;40.76;37.86;47.85;;
69615;Laerm;56821;52.486;4.680;2022-09-17T00:03:38;40.80;38.97;42.30;;
69615;Laerm;56821;52.486;4.680;2022-09-17T00:03:49;41.41;38.99;44.40;;
69615;Laerm;56821;52.486;4.680;2022-09-17T00:04:01;43.84;39.88;47.50;;
69615;Laerm;56821;52.486;4.680;2022-09-17T00:04:13;40.07;38.62;43.13;;
69615;Laerm;56821;52.486;4.680;2022-09-17T00:04:23;40.78;39.11;42.99;;
69615;Laerm;56821;52.486;4.680;2022-09-17T00:04:33;41.46;39.15;46.67;;
69615;Laerm;56821;52.486;4.680;2022-09-17T00:04:46;44.41;40.84;51.13;;
69615;Laerm;56821;52.486;4.680;2022-09-17T00:04:56;42.52;40.07;45.07;;
69615;Laerm;56821;52.486;4.680;2022-09-17T00:05:06;41.44;40.07;42.82;;
69615;Laerm;56821;52.486;4.680;2022-09-17T00:05:16;41.30;39.54;43.08;;
69615;Laerm;56821;52.486;4.680;2022-09-17T00:05:27;40.79;39.40;42.60;;
69615;Laerm;56821;52.486;4.680;2022-09-17T00:05:37;41.27;39.18;43.00;;
69615;Laerm;56821;52.486;4.680;2022-09-17T00:05:47;40.03;38.20;41.98;;
69615;Laerm;56821;52.486;4.680;2022-09-17T00:05:58;39.76;37.92;41.69;;
69615;Laerm;56821;52.486;4.680;2022-09-17T00:06:10;39.78;38.24;45.58;;
69615;Laerm;56821;52.486;4.680;2022-09-17T00:06:22;40.08;38.41;42.03;;
69615;Laerm;56821;52.486;4.680;2022-09-17T00:06:34;40.31;38.85;41.76;;
69615;Laerm;56821;52.486;4.680;2022-09-17T00:06:44;42.19;39.05;49.29;;
69615;Laerm;56821;52.486;4.680;2022-09-17T00:06:54;44.79;39.21;55.77;;
69615;Laerm;56821;52.486;4.680;2022-09-17T00:07:04;42.87;39.34;47.74;;
69615;Laerm;56821;52.486;4.680;2022-09-17T00:07:15;43.88;42.34;46.42;;
69615;Laerm;56821;52.486;4.680;2022-09-17T00:07:25;43.03;41.20;46.94;;
69615;Laerm;56821;52.486;4.680;2022-09-17T00:07:35;41.50;39.09;43.43;;
69615;Laerm;56821;52.486;4.680;2022-09-17T00:07:45;40.14;38.58;42.87;;
69615;Laerm;56821;52.486;4.680;2022-09-17T00:07:56;41.01;39.36;42.67;;
69615;Laerm;56821;52.486;4.680;2022-09-17T00:08:07;45.30;40.15;56.37;;
69615;Laerm;56821;52.486;4.680;2022-09-17T00:08:18;41.02;39.30;43.03;;
69615;Laerm;56821;52.486;4.680;2022-09-17T00:08:28;40.86;39.58;44.27;;
69615;Laerm;56821;52.486;4.680;2022-09-17T00:08:39;40.49;38.84;46.13;;
69615;Laerm;56821;52.486;4.680;2022-09-17T00:08:50;41.00;39.08;44.96;;
69615;Laerm;56821;52.486;4.680;2022-09-17T00:09:01;40.01;37.91;46.45;;
69615;Laerm;56821;52.486;4.680;2022-09-17T00:09:11;39.96;38.39;42.46;;
69615;Laerm;56821;52.486;4.680;2022-09-17T00:09:21;39.95;38.41;42.55;;
69615;Laerm;56821;52.486;4.680;2022-09-17T00:09:32;39.96;38.21;41.13;;
69615;Laerm;56821;52.486;4.680;2022-09-17T00:09:42;42.55;38.50;52.54;;
69615;Laerm;56821;52.486;4.680;2022-09-17T00:09:53;41.22;38.78;43.01;;
69615;Laerm;56821;52.486;4.680;2022-09-17T00:10:03;41.54;40.15;43.77;;
69615;Laerm;56821;52.486;4.680;2022-09-17T00:10:14;41.56;38.24;45.78;;
69615;Laerm;56821;52.486;4.680;2022-09-17T00:10:24;41.43;38.70;45.50;;
69615;Laerm;56821;52.486;4.680;2022-09-17T00:10:38;41.77;39.47;46.39;;
69615;Laerm;56821;52.486;4.680;2022-09-17T00:10:49;41.07;39.40;45.17;;
69615;Laerm;56821;52.486;4.680;2022-09-17T00:11:05;44.59;38.03;66.89;;
69615;Laerm;56821;52.486;4.680;2022-09-17T00:11:16;44.44;37.50;62.50;;
69615;Laerm;56821;52.486;4.680;2022-09-17T00:11:29;39.96;38.00;45.30;;
69615;Laerm;56821;52.486;4.680;2022-09-17T00:11:40;40.07;38.60;43.02;;
69615;Laerm;56821;52.486;4.680;2022-09-17T00:11:50;40.16;38.36;48.25;;
69615;Laerm;56821;52.486;4.680;2022-09-17T00:12:01;39.65;37.89;42.35;;
69615;Laerm;56821;52.486;4.680;2022-09-17T00:12:11;39.46;37.88;41.59;;
69615;Laerm;56821;52.486;4.680;2022-09-17T00:12:21;43.69;39.13;49.88;;
69615;Laerm;56821;52.486;4.680;2022-09-17T00:12:31;39.68;38.04;43.67;;
69615;Laerm;56821;52.486;4.680;2022-09-17T00:12:41;43.27;38.62;48.44;;
69615;Laerm;56821;52.486;4.680;2022-09-17T00:12:52;43.77;38.77;49.72;;
69615;Laerm;56821;52.486;4.680;2022-09-17T00:13:02;40.62;37.12;45.40;;
69615;Laerm;56821;52.486;4.680;2022-09-17T00:13:12;38.29;36.78;40.01;;
69615;Laerm;56821;52.486;4.680;2022-09-17T00:13:23;38.33;36.67;42.65;;
69615;Laerm;56821;52.486;4.680;2022-09-17T00:13:33;38.17;36.58;40.08;;
69615;Laerm;56821;52.486;4.680;2022-09-17T00:13:43;38.32;35.75;40.95;;
69615;Laerm;56821;52.486;4.680;2022-09-17T00:13:54;38.42;37.20;40.30;;
69615;Laerm;56821;52.486;4.680;2022-09-17T00:14:05;38.56;37.05;42.36;;
69615;Laerm;56821;52.486;4.680;2022-09-17T00:14:17;36.93;35.13;39.96;;
69615;Laerm;56821;52.486;4.680;2022-09-17T00:14:27;36.29;34.86;38.35;;
69615;Laerm;56821;52.486;4.680;2022-09-17T00:14:37;36.88;34.99;39.75;;
69615;Laerm;56821;52.486;4.680;2022-09-17T00:14:49;35.60;33.86;42.68;;
69615;Laerm;56821;52.486;4.680;2022-09-17T00:14:59;35.66;34.07;38.01;;
69615;Laerm;56821;52.486;4.680;2022-09-17T00:15:09;37.68;34.98;40.34;;
69615;Laerm;56821;52.486;4.680;2022-09-17T00:15:20;40.14;36.96;45.64;;
69615;Laerm;56821;52.486;4.680;2022-09-17T00:15:30;39.42;37.66;41.92;;
69615;Laerm;56821;52.486;4.680;2022-09-17T00:15:44;40.38;37.84;46.43;;
69615;Laerm;56821;52.486;4.680;2022-09-17T00:15:54;41.26;38.72;48.59;;
69615;Laerm;56821;52.486;4.680;2022-09-17T00:16:05;43.00;38.98;50.98;;
69615;Laerm;56821;52.486;4.680;2022-09-17T00:16:20;41.69;38.32;45.41;;
69615;Laerm;56821;52.486;4.680;2022-09-17T00:16:49;40.61;38.11;46.54;;
69615;Laerm;56821;52.486;4.680;2022-09-17T00:16:59;38.38;36.16;44.13;;
69615;Laerm;56821;52.486;4.680;2022-09-17T00:17:09;39.08;37.52;42.64;;
69615;Laerm;56821;52.486;4.680;2022-09-17T00:17:19;39.02;36.92;42.91;;
69615;Laerm;56821;52.486;4.680;2022-09-17T00:17:30;39.32;37.46;41.65;;
69615;Laerm;56821;52.486;4.680;2022-09-17T00:17:40;39.21;37.10;41.95;;
69615;Laerm;56821;52.486;4.680;2022-09-17T00:17:54;38.24;36.40;40.76;;
69615;Laerm;56821;52.486;4.680;2022-09-17T00:18:06;39.62;37.79;44.11;;
69615;Laerm;56821;52.486;4.680;2022-09-17T00:18:16;39.56;37.24;42.28;;
69615;Laerm;56821;52.486;4.680;2022-09-17T00:18:27;40.53;38.54;42.55;;
69615;Laerm;56821;52.486;4.680;2022-09-17T00:18:37;40.36;37.83;42.76;;
69615;Laerm;56821;52.486;4.680;2022-09-17T00:18:50;39.64;38.04;41.68;;
69615;Laerm;56821;52.486;4.680;2022-09-17T00:19:01;39.40;36.97;43.49;;
69615;Laerm;56821;52.486;4.680;2022-09-17T00:19:19;38.43;36.53;42.42;;
69615;Laerm;56821;52.486;4.680;2022-09-17T00:19:30;38.27;36.35;41.16;;
69615;Laerm;56821;52.486;4.680;2022-09-17T00:19:40;38.08;36.13;39.89;;
69615;Laerm;56821;52.486;4.680;2022-09-17T00:19:50;36.28;34.82;38.84;;
69615;Laerm;56821;52.486;4.680;2022-09-17T00:20:01;36.76;34.86;45.79;;
69615;Laerm;56821;52.486;4.680;2022-09-17T00:20:11;37.33;36.08;42.32;;
69615;Laerm;56821;52.486;4.680;2022-09-17T00:20:21;36.78;35.32;38.99;;
69615;Laerm;56821;52.486;4.680;2022-09-17T00:20:36;38.17;36.28;41.51;;
69615;Laerm;56821;52.486;4.680;2022-09-17T00:20:46;43.23;38.59;48.50;;
69615;Laerm;56821;52.486;4.680;2022-09-17T00:20:56;43.08;40.10;46.93;;
69615;Laerm;56821;52.486;4.680;2022-09-17T00:21:14;39.94;38.23;42.65;;
69615;Laerm;56821;52.486;4.680;2022-09-17T00:21:25;39.61;37.81;42.55;;
69615;Laerm;56821;52.486;4.680;2022-09-17T00:21:35;40.36;38.40;46.05;;
69615;Laerm;56821;52.486;4.680;2022-09-17T00:21:46;39.94;37.99;47.06;;
69615;Laerm;56821;52.486;4.680;2022-09-17T00:21:56;41.45;38.18;45.44;;
69615;Laerm;56821;52.486;4.680;2022-09-17T00:22:07;43.59;41.72;45.29;;
69615;Laerm;56821;52.486;4.680;2022-09-17T00:22:17;42.07;39.57;44.90;;
69615;Laerm;56821;52.486;4.680;2022-09-17T00:22:27;40.09;38.17;44.40;;
69615;Laerm;56821;52.486;4.680;2022-09-17T00:22:37;40.23;38.57;41.86;;
69615;Laerm;56821;52.486;4.680;2022-09-17T00:22:48;42.02;39.58;44.86;;
69615;Laerm;56821;52.486;4.680;2022-09-17T00:22:58;42.78;40.95;45.01;;
69615;Laerm;56821;52.486;4.680;2022-09-17T00:23:09;43.80;41.25;47.51;;
69615;Laerm;56821;52.486;4.680;2022-09-17T00:23:19;42.98;41.31;46.30;;
69615;Laerm;56821;52.486;4.680;2022-09-17T00:23:29;42.48;39.44;44.51;;
69615;Laerm;56821;52.486;4.680;2022-09-17T00:23:39;40.38;38.69;41.82;;
69615;Laerm;56821;52.486;4.680;2022-09-17T00:23:56;41.18;39.06;43.28;;
69615;Laerm;56821;52.486;4.680;2022-09-17T00:24:08;40.82;37.09;45.33;;
69615;Laerm;56821;52.486;4.680;2022-09-17T00:24:19;39.09;36.84;45.91;;
69615;Laerm;56821;52.486;4.680;2022-09-17T00:24:30;38.38;36.84;39.97;;
69615;Laerm;56821;52.486;4.680;2022-09-17T00:24:40;40.29;38.10;42.76;;
69615;Laerm;56821;52.486;4.680;2022-09-17T00:24:50;42.26;39.05;50.59;;
69615;Laerm;56821;52.486;4.680;2022-09-17T00:25:01;42.71;39.93;50.21;;
69615;Laerm;56821;52.486;4.680;2022-09-17T00:25:11;41.05;39.66;42.68;;
69615;Laerm;56821;52.486;4.680;2022-09-17T00:25:21;39.72;36.70;42.31;;
69615;Laerm;56821;52.486;4.680;2022-09-17T00:25:32;37.99;36.91;39.44;;
69615;Laerm;56821;52.486;4.680;2022-09-17T00:25:43;39.14;37.48;40.86;;
69615;Laerm;56821;52.486;4.680;2022-09-17T00:25:53;38.99;37.27;40.70;;
69615;Laerm;56821;52.486;4.680;2022-09-17T00:26:04;38.67;36.90;40.05;;
69615;Laerm;56821;52.486;4.680;2022-09-17T00:26:15;48.03;38.81;59.91;;
69615;Laerm;56821;52.486;4.680;2022-09-17T00:26:25;42.15;40.24;46.81;;
69615;Laerm;56821;52.486;4.680;2022-09-17T00:26:36;41.83;39.77;43.78;;
69615;Laerm;56821;52.486;4.680;2022-09-17T00:26:46;41.66;39.50;43.43;;
69615;Laerm;56821;52.486;4.680;2022-09-17T00:26:57;40.23;38.74;43.58;;
69615;Laerm;56821;52.486;4.680;2022-09-17T00:27:07;40.08;38.43;41.93;;
69615;Laerm;56821;52.486;4.680;2022-09-17T00:27:18;40.59;38.94;42.12;;
69615;Laerm;56821;52.486;4.680;2022-09-17T00:27:28;40.74;38.62;43.72;;
69615;Laerm;56821;52.486;4.680;2022-09-17T00:27:38;38.73;36.87;40.46;;
69615;Laerm;56821;52.486;4.680;2022-09-17T00:27:48;39.13;37.93;40.89;;
69615;Laerm;56821;52.486;4.680;2022-09-17T00:27:58;38.21;36.36;39.72;;
69615;Laerm;56821;52.486;4.680;2022-09-17T00:28:09;38.45;36.61;41.40;;
69615;Laerm;56821;52.486;4.680;2022-09-17T00:28:19;38.55;36.51;42.26;;
69615;Laerm;56821;52.486;4.680;2022-09-17T00:28:30;38.25;36.39;41.64;;
69615;Laerm;56821;52.486;4.680;2022-09-17T00:28:40;37.80;36.50;41.16;;
69615;Laerm;56821;52.486;4.680;2022-09-17T00:28:54;38.00;36.04;41.27;;
69615;Laerm;56821;52.486;4.680;2022-09-17T00:29:05;38.83;36.49;41.50;;
69615;Laerm;56821;52.486;4.680;2022-09-17T00:29:15;39.09;36.80;41.14;;
69615;Laerm;56821;52.486;4.680;2022-09-17T00:29:26;37.99;36.55;41.29;;
69615;Laerm;56821;52.486;4.680;2022-09-17T00:29:36;38.17;36.82;43.79;;
69615;Laerm;56821;52.486;4.680;2022-09-17T00:29:47;35.65;33.86;39.55;;
69615;Laerm;56821;52.486;4.680;2022-09-17T00:29:57;35.06;33.48;43.38;;
69615;Laerm;56821;52.486;4.680;2022-09-17T00:30:07;33.88;32.01;38.37;;
69615;Laerm;56821;52.486;4.680;2022-09-17T00:30:18;34.33;32.31;40.16;;
69615;Laerm;56821;52.486;4.680;2022-09-17T00:30:28;35.48;34.14;38.66;;
69615;Laerm;56821;52.486;4.680;2022-09-17T00:30:39;37.64;34.92;40.14;;
69615;Laerm;56821;52.486;4.680;2022-09-17T00:30:49;38.80;36.61;41.98;;
69615;Laerm;56821;52.486;4.680;2022-09-17T00:30:59;38.15;36.29;39.71;;
69615;Laerm;56821;52.486;4.680;2022-09-17T00:31:10;38.52;36.66;43.91;;
69615;Laerm;56821;52.486;4.680;2022-09-17T00:31:20;38.34;37.29;39.92;;
69615;Laerm;56821;52.486;4.680;2022-09-17T00:31:31;37.74;35.70;43.86;;
69615;Laerm;56821;52.486;4.680;2022-09-17T00:31:41;37.77;35.85;39.59;;
69615;Laerm;56821;52.486;4.680;2022-09-17T00:31:51;38.31;35.88;42.59;;
69615;Laerm;56821;52.486;4.680;2022-09-17T00:32:01;41.44;37.89;47.38;;
69615;Laerm;56821;52.486;4.680;2022-09-17T00:32:12;40.00;37.23;42.42;;
69615;Laerm;56821;52.486;4.680;2022-09-17T00:32:22;38.02;36.69;40.20;;
69615;Laerm;56821;52.486;4.680;2022-09-17T00:32:32;43.87;36.80;53.26;;
69615;Laerm;56821;52.486;4.680;2022-09-17T00:32:42;39.73;37.09;47.31;;
69615;Laerm;56821;52.486;4.680;2022-09-17T00:32:53;38.46;36.83;41.11;;
69615;Laerm;56821;52.486;4.680;2022-09-17T00:33:03;39.42;37.63;40.71;;
69615;Laerm;56821;52.486;4.680;2022-09-17T00:33:14;40.46;37.58;42.71;;
69615;Laerm;56821;52.486;4.680;2022-09-17T00:33:24;41.26;39.50;43.57;;
69615;Laerm;56821;52.486;4.680;2022-09-17T00:33:35;39.84;38.44;47.94;;
69615;Laerm;56821;52.486;4.680;2022-09-17T00:33:45;39.87;37.77;42.83;;
69615;Laerm;56821;52.486;4.680;2022-09-17T00:33:56;39.31;36.93;46.25;;
69615;Laerm;56821;52.486;4.680;2022-09-17T00:34:07;38.82;37.14;41.74;;
69615;Laerm;56821;52.486;4.680;2022-09-17T00:34:17;39.22;37.94;40.47;;
69615;Laerm;56821;52.486;4.680;2022-09-17T00:34:27;39.13;37.36;40.31;;
69615;Laerm;56821;52.486;4.680;2022-09-17T00:34:37;38.14;36.78;40.10;;
69615;Laerm;56821;52.486;4.680;2022-09-17T00:34:48;36.97;35.50;46.26;;
69615;Laerm;56821;52.486;4.680;2022-09-17T00:35:01;36.58;34.69;41.15;;
69615;Laerm;56821;52.486;4.680;2022-09-17T00:35:11;38.46;36.67;40.72;;
69615;Laerm;56821;52.486;4.680;2022-09-17T00:35:21;44.57;39.58;49.96;;
69615;Laerm;56821;52.486;4.680;2022-09-17T00:35:31;45.35;43.58;52.07;;
69615;Laerm;56821;52.486;4.680;2022-09-17T00:35:42;46.96;43.95;53.26;;
69615;Laerm;56821;52.486;4.680;2022-09-17T00:35:59;44.68;39.73;48.07;;
69615;Laerm;56821;52.486;4.680;2022-09-17T00:36:09;41.28;39.13;43.39;;
69615;Laerm;56821;52.486;4.680;2022-09-17T00:36:20;39.74;38.14;41.91;;
69615;Laerm;56821;52.486;4.680;2022-09-17T00:36:33;40.33;38.92;41.95;;
69615;Laerm;56821;52.486;4.680;2022-09-17T00:36:43;37.92;35.75;40.46;;
69615;Laerm;56821;52.486;4.680;2022-09-17T00:36:53;38.38;37.19;40.31;;
69615;Laerm;56821;52.486;4.680;2022-09-17T00:37:04;37.91;36.74;39.28;;
69615;Laerm;56821;52.486;4.680;2022-09-17T00:37:14;40.13;37.78;42.03;;
69615;Laerm;56821;52.486;4.680;2022-09-17T00:37:24;40.62;38.20;46.59;;
69615;Laerm;56821;52.486;4.680;2022-09-17T00:37:34;41.30;38.56;52.13;;
69615;Laerm;56821;52.486;4.680;2022-09-17T00:37:44;41.06;38.52;52.13;;
69615;Laerm;56821;52.486;4.680;2022-09-17T00:37:55;41.50;38.17;49.88;;
69615;Laerm;56821;52.486;4.680;2022-09-17T00:38:05;40.86;38.13;43.70;;
69615;Laerm;56821;52.486;4.680;2022-09-17T00:38:15;39.53;37.81;44.52;;
69615;Laerm;56821;52.486;4.680;2022-09-17T00:38:26;38.20;36.78;40.11;;
69615;Laerm;56821;52.486;4.680;2022-09-17T00:38:36;38.50;36.18;40.36;;
69615;Laerm;56821;52.486;4.680;2022-09-17T00:38:53;40.23;37.90;43.39;;
69615;Laerm;56821;52.486;4.680;2022-09-17T00:39:04;42.76;39.75;46.78;;
69615;Laerm;56821;52.486;4.680;2022-09-17T00:39:15;44.76;40.24;56.42;;
69615;Laerm;56821;52.486;4.680;2022-09-17T00:39:25;41.01;38.65;42.92;;
69615;Laerm;56821;52.486;4.680;2022-09-17T00:39:36;40.72;38.43;43.16;;
69615;Laerm;56821;52.486;4.680;2022-09-17T00:39:46;40.35;38.40;46.67;;
69615;Laerm;56821;52.486;4.680;2022-09-17T00:39:56;42.36;40.16;44.59;;
69615;Laerm;56821;52.486;4.680;2022-09-17T00:40:07;42.02;39.92;43.72;;
69615;Laerm;56821;52.486;4.680;2022-09-17T00:40:17;40.29;38.62;42.38;;
69615;Laerm;56821;52.486;4.680;2022-09-17T00:40:28;40.23;38.38;42.53;;
69615;Laerm;56821;52.486;4.680;2022-09-17T00:40:38;38.67;37.33;39.92;;
69615;Laerm;56821;52.486;4.680;2022-09-17T00:40:48;38.61;37.21;39.88;;
69615;Laerm;56821;52.486;4.680;2022-09-17T00:40:59;37.73;36.17;39.57;;
69615;Laerm;56821;52.486;4.680;2022-09-17T00:41:09;37.23;35.33;39.23;;
69615;Laerm;56821;52.486;4.680;2022-09-17T00:41:20;36.88;35.20;38.52;;
69615;Laerm;56821;52.486;4.680;2022-09-17T00:41:33;36.15;34.55;41.89;;
69615;Laerm;56821;52.486;4.680;2022-09-17T00:41:43;36.15;34.57;38.33;;
69615;Laerm;56821;52.486;4.680;2022-09-17T00:41:53;37.19;35.81;39.16;;
69615;Laerm;56821;52.486;4.680;2022-09-17T00:42:04;38.40;36.17;40.49;;
69615;Laerm;56821;52.486;4.680;2022-09-17T00:42:19;38.63;36.21;40.47;;
69615;Laerm;56821;52.486;4.680;2022-09-17T00:42:30;39.51;38.09;40.99;;
69615;Laerm;56821;52.486;4.680;2022-09-17T00:42:41;38.75;35.53;40.88;;
69615;Laerm;56821;52.486;4.680;2022-09-17T00:42:51;38.30;35.60;40.21;;
69615;Laerm;56821;52.486;4.680;2022-09-17T00:43:02;37.93;36.59;39.52;;
69615;Laerm;56821;52.486;4.680;2022-09-17T00:43:12;36.83;35.63;38.25;;
69615;Laerm;56821;52.486;4.680;2022-09-17T00:43:56;37.17;35.37;39.11;;
69615;Laerm;56821;52.486;4.680;2022-09-17T00:44:00;37.57;35.72;45.46;;
69615;Laerm;56821;52.486;4.680;2022-09-17T00:44:54;42.85;39.62;49.33;;
69615;Laerm;56821;52.486;4.680;2022-09-17T00:45:05;43.63;38.61;48.03;;
69615;Laerm;56821;52.486;4.680;2022-09-17T00:45:15;39.40;38.10;41.99;;
69615;Laerm;56821;52.486;4.680;2022-09-17T00:45:25;39.15;37.22;43.16;;
69615;Laerm;56821;52.486;4.680;2022-09-17T00:45:36;37.57;35.40;40.44;;
69615;Laerm;56821;52.486;4.680;2022-09-17T00:45:47;36.93;34.96;42.02;;
69615;Laerm;56821;52.486;4.680;2022-09-17T00:45:57;36.51;34.69;39.02;;
69615;Laerm;56821;52.486;4.680;2022-09-17T00:46:41;37.63;35.49;42.47;;
69615;Laerm;56821;52.486;4.680;2022-09-17T00:46:52;37.29;35.42;39.49;;
69615;Laerm;56821;52.486;4.680;2022-09-17T00:47:02;37.05;35.62;38.82;;
69615;Laerm;56821;52.486;4.680;2022-09-17T00:47:28;37.52;35.85;39.56;;
69615;Laerm;56821;52.486;4.680;2022-09-17T00:47:41;38.28;34.98;41.39;;
69615;Laerm;56821;52.486;4.680;2022-09-17T00:48:03;36.21;34.63;37.85;;
69615;Laerm;56821;52.486;4.680;2022-09-17T00:48:14;36.83;35.00;40.78;;
69615;Laerm;56821;52.486;4.680;2022-09-17T00:48:25;36.44;34.83;37.79;;
69615;Laerm;56821;52.486;4.680;2022-09-17T00:48:35;37.05;35.26;38.84;;
69615;Laerm;56821;52.486;4.680;2022-09-17T00:48:45;39.19;37.56;41.35;;
69615;Laerm;56821;52.486;4.680;2022-09-17T00:48:56;40.17;37.46;42.32;;
69615;Laerm;56821;52.486;4.680;2022-09-17T00:49:22;40.34;38.76;42.12;;
69615;Laerm;56821;52.486;4.680;2022-09-17T00:49:33;39.89;38.23;46.19;;
69615;Laerm;56821;52.486;4.680;2022-09-17T00:49:43;38.43;36.90;39.99;;
69615;Laerm;56821;52.486;4.680;2022-09-17T00:49:56;38.05;36.40;39.74;;
69615;Laerm;56821;52.486;4.680;2022-09-17T00:50:08;38.30;36.52;42.52;;
69615;Laerm;56821;52.486;4.680;2022-09-17T00:50:24;37.35;36.13;38.84;;
69615;Laerm;56821;52.486;4.680;2022-09-17T00:50:40;36.90;35.28;38.35;;
69615;Laerm;56821;52.486;4.680;2022-09-17T00:50:51;37.74;35.53;42.22;;
69615;Laerm;56821;52.486;4.680;2022-09-17T00:51:01;39.49;37.36;42.54;;
69615;Laerm;56821;52.486;4.680;2022-09-17T00:51:13;40.18;37.17;44.08;;
69615;Laerm;56821;52.486;4.680;2022-09-17T00:51:27;39.53;36.96;44.12;;
69615;Laerm;56821;52.486;4.680;2022-09-17T00:51:41;38.76;36.07;42.56;;
69615;Laerm;56821;52.486;4.680;2022-09-17T00:51:58;37.62;35.53;40.39;;
69615;Laerm;56821;52.486;4.680;2022-09-17T00:52:11;39.89;35.65;47.78;;
69615;Laerm;56821;52.486;4.680;2022-09-17T00:52:34;39.53;37.55;43.16;;
69615;Laerm;56821;52.486;4.680;2022-09-17T00:52:46;39.95;37.41;45.40;;
69615;Laerm;56821;52.486;4.680;2022-09-17T00:53:30;39.76;36.78;43.98;;
69615;Laerm;56821;52.486;4.680;2022-09-17T00:53:33;44.17;38.84;60.56;;
69615;Laerm;56821;52.486;4.680;2022-09-17T00:53:43;41.41;39.27;44.21;;
69615;Laerm;56821;52.486;4.680;2022-09-17T00:53:54;39.46;37.41;41.71;;
69615;Laerm;56821;52.486;4.680;2022-09-17T00:54:05;40.40;38.87;41.79;;
69615;Laerm;56821;52.486;4.680;2022-09-17T00:54:16;39.95;37.34;42.21;;
69615;Laerm;56821;52.486;4.680;2022-09-17T00:54:26;39.48;37.48;42.06;;
69615;Laerm;56821;52.486;4.680;2022-09-17T00:54:37;39.84;37.66;42.59;;
69615;Laerm;56821;52.486;4.680;2022-09-17T00:54:51;45.87;40.39;57.47;;
69615;Laerm;56821;52.486;4.680;2022-09-17T00:55:11;46.46;41.11;63.35;;
69615;Laerm;56821;52.486;4.680;2022-09-17T00:55:42;42.37;40.22;44.46;;
69615;Laerm;56821;52.486;4.680;2022-09-17T00:55:56;39.54;37.79;41.68;;
69615;Laerm;56821;52.486;4.680;2022-09-17T00:56:17;38.60;36.92;42.09;;
69615;Laerm;56821;52.486;4.680;2022-09-17T00:56:30;39.75;38.01;44.79;;
69615;Laerm;56821;52.486;4.680;2022-09-17T00:56:41;39.05;36.64;40.51;;
69615;Laerm;56821;52.486;4.680;2022-09-17T00:56:52;37.69;36.25;40.75;;
69615;Laerm;56821;52.486;4.680;2022-09-17T00:57:02;37.96;36.23;40.14;;
69615;Laerm;56821;52.486;4.680;2022-09-17T00:57:13;41.22;38.09;44.07;;
69615;Laerm;56821;52.486;4.680;2022-09-17T00:57:23;41.31;38.07;44.99;;
69615;Laerm;56821;52.486;4.680;2022-09-17T00:57:34;40.05;37.69;46.61;;
69615;Laerm;56821;52.486;4.680;2022-09-17T00:57:44;39.55;37.58;46.77;;
69615;Laerm;56821;52.486;4.680;2022-09-17T00:57:55;38.25;36.83;40.12;;
69615;Laerm;56821;52.486;4.680;2022-09-17T00:58:08;38.21;36.69;39.88;;
69615;Laerm;56821;52.486;4.680;2022-09-17T00:58:19;38.08;36.93;39.54;;
69615;Laerm;56821;52.486;4.680;2022-09-17T00:58:31;38.64;37.12;40.04;;
69615;Laerm;56821;52.486;4.680;2022-09-17T00:58:42;39.56;37.33;42.50;;
69615;Laerm;56821;52.486;4.680;2022-09-17T00:58:53;39.17;36.78;42.61;;
69615;Laerm;56821;52.486;4.680;2022-09-17T00:59:03;38.42;36.97;39.58;;
69615;Laerm;56821;52.486;4.680;2022-09-17T00:59:14;46.20;37.34;58.88;;
69615;Laerm;56821;52.486;4.680;2022-09-17T00:59:24;41.51;37.21;52.32;;
69615;Laerm;56821;52.486;4.680;2022-09-17T00:59:35;38.08;36.28;39.79;;
69615;Laerm;56821;52.486;4.680;2022-09-17T00:59:46;37.29;35.86;41.74;;
69615;Laerm;56821;52.486;4.680;2022-09-17T00:59:56;37.88;36.46;40.31;;
69615;Laerm;56821;52.486;4.680;2022-09-17T01:00:07;39.18;37.66;40.60;;
69615;Laerm;56821;52.486;4.680;2022-09-17T01:00:18;39.21;37.88;42.24;;
69615;Laerm;56821;52.486;4.680;2022-09-17T01:00:29;39.68;38.31;41.06;;
69615;Laerm;56821;52.486;4.680;2022-09-17T01:00:40;38.23;36.53;39.96;;
69615;Laerm;56821;52.486;4.680;2022-09-17T01:00:50;38.58;36.83;40.74;;
69615;Laerm;56821;52.486;4.680;2022-09-17T01:01:00;39.25;37.38;41.90;;
69615;Laerm;56821;52.486;4.680;2022-09-17T01:01:11;39.06;37.28;42.44;;
69615;Laerm;56821;52.486;4.680;2022-09-17T01:01:21;37.26;35.87;38.91;;
69615;Laerm;56821;52.486;4.680;2022-09-17T01:01:31;37.37;35.82;38.51;;
69615;Laerm;56821;52.486;4.680;2022-09-17T01:01:41;39.40;37.75;42.68;;
69615;Laerm;56821;52.486;4.680;2022-09-17T01:01:52;38.37;36.32;40.49;;
69615;Laerm;56821;52.486;4.680;2022-09-17T01:02:03;37.06;35.64;39.06;;
69615;Laerm;56821;52.486;4.680;2022-09-17T01:02:13;37.72;35.87;40.80;;
69615;Laerm;56821;52.486;4.680;2022-09-17T01:02:24;39.04;36.50;41.66;;
69615;Laerm;56821;52.486;4.680;2022-09-17T01:02:34;37.20;35.63;41.11;;
69615;Laerm;56821;52.486;4.680;2022-09-17T01:02:45;36.01;34.28;38.20;;
69615;Laerm;56821;52.486;4.680;2022-09-17T01:02:55;35.52;33.72;37.95;;
69615;Laerm;56821;52.486;4.680;2022-09-17T01:03:07;35.64;33.82;38.37;;
69615;Laerm;56821;52.486;4.680;2022-09-17T01:03:17;36.47;34.38;38.25;;
69615;Laerm;56821;52.486;4.680;2022-09-17T01:03:28;36.13;34.37;37.91;;
69615;Laerm;56821;52.486;4.680;2022-09-17T01:03:38;36.52;34.69;39.32;;
69615;Laerm;56821;52.486;4.680;2022-09-17T01:03:49;37.05;35.31;42.32;;
69615;Laerm;56821;52.486;4.680;2022-09-17T01:03:59;37.99;35.76;44.81;;
69615;Laerm;56821;52.486;4.680;2022-09-17T01:04:19;36.50;34.40;38.71;;
69615;Laerm;56821;52.486;4.680;2022-09-17T01:04:30;36.06;33.80;40.25;;
69615;Laerm;56821;52.486;4.680;2022-09-17T01:04:40;35.69;33.53;39.87;;
69615;Laerm;56821;52.486;4.680;2022-09-17T01:04:51;35.42;33.20;41.49;;
69615;Laerm;56821;52.486;4.680;2022-09-17T01:05:02;35.77;33.42;38.28;;
69615;Laerm;56821;52.486;4.680;2022-09-17T01:05:13;37.40;35.75;40.78;;
69615;Laerm;56821;52.486;4.680;2022-09-17T01:05:52;37.29;35.59;40.88;;